Terminal Aerodrome Forecast
Issued by NWS

Home | Current Version | Previous Version | Text Only | Print | Product List | Glossary On
Versions: 1 2 3 4 5 6 7 8 9 10 11 12 13 14 15 16 17
000
FTUS45 KSLC 271120
TAFEVW
TAF
KEVW 271120Z 2712/2812 01011KT P6SM SCT130
     FM271600 04007KT P6SM VCSH SCT040 BKN080
     FM272100 22010KT P6SM VCSH SCT030 BKN060
     FM280300 11004KT P6SM SCT060 BKN100
     FM281000 02005KT 2SM BR VCFG BKN004=

USA.gov is the U.S. government's official web portal to all federal, state and local government web resources and services.